createdAt,value
2023-04-15T00:01:06.237Z,10.19
2023-04-15T00:03:35.029Z,10.41
2023-04-15T00:06:02.603Z,10.59
2023-04-15T00:08:30.457Z,10.06
2023-04-15T00:10:59.677Z,9.84
2023-04-15T00:13:26.646Z,10.15
2023-04-15T00:15:53.604Z,9.23
2023-04-15T00:18:20.593Z,9.87
2023-04-15T00:20:48.095Z,9.37
2023-04-15T00:23:15.079Z,8.96
2023-04-15T00:25:42.105Z,8.96
2023-04-15T00:28:09.670Z,9.24
2023-04-15T00:30:36.719Z,9.36
2023-04-15T00:33:04.067Z,9.44
2023-04-15T00:35:34.615Z,9.07
2023-04-15T00:38:01.663Z,8.52
2023-04-15T00:40:28.597Z,8.94
2023-04-15T00:42:55.618Z,9.17
2023-04-15T00:45:22.701Z,9.01
2023-04-15T00:47:51.579Z,9.12
2023-04-15T00:50:18.688Z,8.64
2023-04-15T00:52:45.913Z,9.16
2023-04-15T00:55:13.136Z,9.39
2023-04-15T00:57:41.250Z,9.15
2023-04-15T01:00:09.665Z,8.79
2023-04-15T01:02:37.107Z,9.15
2023-04-15T01:05:05.030Z,9.38
2023-04-15T01:07:32.626Z,9.55
2023-04-15T01:10:00.090Z,9.75
2023-04-15T01:12:28.355Z,9.74
2023-04-15T01:14:56.938Z,9.64
2023-04-15T01:17:25.463Z,9.71
2023-04-15T01:19:53.174Z,9.67
2023-04-15T01:22:20.166Z,9.32
2023-04-15T01:25:18.596Z,9.70
2023-04-15T01:27:45.826Z,9.87
2023-04-15T01:30:12.914Z,10.13
2023-04-15T01:32:39.940Z,10.05
2023-04-15T01:35:07.957Z,9.55
2023-04-15T01:37:35.125Z,9.94
2023-04-15T01:40:02.313Z,10.13
2023-04-15T01:42:29.438Z,10.08
2023-04-15T01:44:56.589Z,10.05
2023-04-15T01:47:23.644Z,10.27
2023-04-15T01:49:50.668Z,10.16
2023-04-15T01:52:17.734Z,10.43
2023-04-15T01:54:44.783Z,10.45
2023-04-15T01:57:11.871Z,9.87
2023-04-15T01:59:38.885Z,10.14
2023-04-15T02:02:05.905Z,10.18
2023-04-15T02:04:32.993Z,10.49
2023-04-15T02:07:00.180Z,10.46
2023-04-15T02:09:27.246Z,10.20
2023-04-15T02:11:54.515Z,10.36
2023-04-15T02:14:21.733Z,10.34
2023-04-15T02:16:48.910Z,10.28
2023-04-15T02:19:15.916Z,9.68
2023-04-15T02:21:42.985Z,9.92
2023-04-15T02:24:10.038Z,10.16
2023-04-15T02:26:37.069Z,9.59
2023-04-15T02:29:04.389Z,10.12
2023-04-15T02:31:34.304Z,9.88
2023-04-15T02:34:03.285Z,10.01
2023-04-15T02:36:32.008Z,10.35
2023-04-15T02:38:59.313Z,10.23
2023-04-15T02:41:28.771Z,10.27
2023-04-15T02:43:56.121Z,10.41
2023-04-15T02:46:23.436Z,10.16
2023-04-15T02:48:50.929Z,10.00
2023-04-15T02:51:20.953Z,10.09
2023-04-15T02:53:49.221Z,9.83
2023-04-15T02:56:17.535Z,9.98
2023-04-15T02:58:45.956Z,10.21
2023-04-15T03:01:13.076Z,10.44
2023-04-15T03:03:40.198Z,10.06
2023-04-15T03:06:07.173Z,9.64
2023-04-15T03:08:34.174Z,9.90
2023-04-15T03:11:02.928Z,9.61
2023-04-15T03:13:29.937Z,10.16
2023-04-15T03:15:57.030Z,10.06
2023-04-15T03:18:24.030Z,10.07
2023-04-15T03:20:51.097Z,9.97
2023-04-15T03:23:18.083Z,9.59
2023-04-15T03:25:45.634Z,9.72
2023-04-15T03:28:12.864Z,9.68
2023-04-15T03:30:39.956Z,10.02
2023-04-15T03:33:07.242Z,10.39
2023-04-15T03:35:34.682Z,9.85
2023-04-15T03:38:01.704Z,10.15
2023-04-15T03:40:28.706Z,10.13
2023-04-15T03:42:56.011Z,10.08
2023-04-15T03:45:22.952Z,10.19
2023-04-15T03:47:50.152Z,10.34
2023-04-15T03:50:17.272Z,10.20
2023-04-15T03:52:45.092Z,10.55
2023-04-15T03:55:12.199Z,10.36
2023-04-15T03:57:39.976Z,9.93
2023-04-15T04:00:09.528Z,10.12
2023-04-15T04:02:37.020Z,10.01
2023-04-15T04:05:04.693Z,10.22
2023-04-15T04:07:32.612Z,10.36
2023-04-15T04:09:59.633Z,10.20
2023-04-15T04:12:26.628Z,10.37
2023-04-15T05:08:47.330Z,9.82
2023-04-15T05:11:14.308Z,9.97
2023-04-15T05:13:41.447Z,10.34
2023-04-15T05:16:08.696Z,10.48
2023-04-15T05:18:35.901Z,10.72
2023-04-15T05:21:03.373Z,10.60
2023-04-15T05:23:30.524Z,10.91
2023-04-15T05:25:57.561Z,11.02
2023-04-15T05:28:24.481Z,11.25
2023-04-15T05:30:51.626Z,11.35
2023-04-15T05:33:19.384Z,11.41
2023-04-15T05:35:46.591Z,11.39
2023-04-15T05:38:13.566Z,11.21
2023-04-15T05:40:40.935Z,11.32
2023-04-15T05:43:08.066Z,11.44
2023-04-15T05:45:35.015Z,11.13
2023-04-15T05:48:02.154Z,11.28
2023-04-15T05:50:29.258Z,11.46
2023-04-15T05:52:56.389Z,11.53
2023-04-15T05:55:23.418Z,11.43
2023-04-15T05:57:50.443Z,11.64
2023-04-15T06:00:17.606Z,11.62
2023-04-15T06:02:44.970Z,11.75
2023-04-15T06:05:12.295Z,11.72
2023-04-15T06:07:39.460Z,11.47
2023-04-15T06:10:07.640Z,11.57
2023-04-15T06:12:34.716Z,11.70
2023-04-15T06:15:01.899Z,11.70
2023-04-15T06:17:28.932Z,11.67
2023-04-15T06:19:56.417Z,11.64
2023-04-15T06:22:24.151Z,11.51
2023-04-15T06:24:51.916Z,11.58
2023-04-15T06:27:19.413Z,11.82
2023-04-15T06:29:46.565Z,11.51
2023-04-15T06:32:13.668Z,11.51
2023-04-15T06:34:40.979Z,11.64
2023-04-15T06:37:08.173Z,11.53
2023-04-15T06:39:35.276Z,11.33
2023-04-15T06:42:03.676Z,11.28
2023-04-15T06:44:33.271Z,11.44
2023-04-15T06:47:00.895Z,11.60
2023-04-15T06:49:28.323Z,11.60
2023-04-15T06:51:55.327Z,11.62
2023-04-15T06:54:22.762Z,11.59
2023-04-15T06:56:50.255Z,11.60
2023-04-15T06:59:17.426Z,11.59
2023-04-15T07:01:44.394Z,11.45
2023-04-15T07:04:12.609Z,11.11
2023-04-15T07:06:39.924Z,11.16
2023-04-15T07:09:06.867Z,11.42
2023-04-15T07:11:34.158Z,11.64
2023-04-15T07:14:01.163Z,11.52
2023-04-15T07:16:29.766Z,11.56
2023-04-15T07:18:57.510Z,11.69
2023-04-15T07:21:25.462Z,11.78
2023-04-15T07:23:52.714Z,12.23
2023-04-15T07:26:19.708Z,12.23
2023-04-15T07:28:47.750Z,12.03
2023-04-15T07:31:15.285Z,12.05
2023-04-15T07:33:42.360Z,12.21
2023-04-15T07:36:09.752Z,12.54
2023-04-15T07:38:36.754Z,12.57
2023-04-15T07:41:04.441Z,12.42
2023-04-15T07:43:31.462Z,12.43
2023-04-15T07:45:58.516Z,12.25
2023-04-15T07:48:25.999Z,12.39
2023-04-15T07:50:53.111Z,12.27
2023-04-15T07:53:20.653Z,12.38
2023-04-15T07:55:47.626Z,12.19
2023-04-15T07:58:14.597Z,12.36
2023-04-15T08:00:41.884Z,12.03
2023-04-15T08:03:08.959Z,12.10
2023-04-15T08:05:36.111Z,12.19
2023-04-15T08:08:03.256Z,11.93
2023-04-15T08:10:30.954Z,12.03
2023-04-15T08:12:57.998Z,12.35
2023-04-15T08:15:26.147Z,12.36
2023-04-15T08:17:53.274Z,12.52
2023-04-15T08:20:20.920Z,12.59
2023-04-15T08:22:52.258Z,12.77
2023-04-15T08:25:20.317Z,12.98
2023-04-15T08:27:47.617Z,12.82
2023-04-15T08:30:14.891Z,13.16
2023-04-15T08:32:51.518Z,13.28
2023-04-15T08:35:18.580Z,13.30
2023-04-15T08:37:45.551Z,13.28
2023-04-15T08:40:13.091Z,13.43
2023-04-15T08:42:49.341Z,13.58
2023-04-15T08:45:18.432Z,13.39
2023-04-15T08:47:48.076Z,13.65
2023-04-15T08:50:15.581Z,13.61
2023-04-15T08:52:42.913Z,13.76
2023-04-15T08:55:11.990Z,13.89
2023-04-15T08:57:40.138Z,13.61
2023-04-15T09:00:07.817Z,13.36
2023-04-15T09:02:34.978Z,13.80
2023-04-15T09:05:05.225Z,13.96
2023-04-15T09:07:35.040Z,14.03
2023-04-15T09:10:01.969Z,13.42
2023-04-15T09:12:29.022Z,13.53
2023-04-15T09:14:56.094Z,13.92
2023-04-15T09:17:23.151Z,13.69
2023-04-15T09:19:50.239Z,13.86
2023-04-15T09:22:17.566Z,13.58
2023-04-15T09:24:44.572Z,13.56
2023-04-15T09:27:11.701Z,13.65
2023-04-15T09:29:38.709Z,13.84
2023-04-15T09:32:17.254Z,13.59
2023-04-15T09:34:44.799Z,13.73
2023-04-15T09:37:24.553Z,13.79
2023-04-15T09:39:58.563Z,13.83
2023-04-15T09:42:27.082Z,13.59
2023-04-15T09:44:54.329Z,14.11
2023-04-15T09:47:31.811Z,14.12
2023-04-15T09:50:00.139Z,14.06
2023-04-15T09:52:27.623Z,14.13
2023-04-15T09:54:56.938Z,14.34
2023-04-15T09:57:26.739Z,14.27
2023-04-15T09:59:53.630Z,14.53
2023-04-15T10:02:24.545Z,14.73
2023-04-15T10:04:52.935Z,15.09
2023-04-15T10:07:22.598Z,15.16
2023-04-15T10:09:49.930Z,15.26
2023-04-15T10:12:18.910Z,15.14
2023-04-15T10:14:53.124Z,15.53
2023-04-15T10:17:23.857Z,15.59
2023-04-15T10:19:54.787Z,15.79
2023-04-15T10:22:23.568Z,15.71
2023-04-15T10:24:51.869Z,16.06
2023-04-15T10:27:19.625Z,16.10
2023-04-15T10:29:48.157Z,16.43
2023-04-15T10:32:16.338Z,16.44
2023-04-15T10:34:43.933Z,16.69
2023-04-15T10:37:13.497Z,17.19
2023-04-15T10:39:43.460Z,17.49
2023-04-15T10:42:15.801Z,17.48
2023-04-15T10:44:45.618Z,17.80
2023-04-15T10:47:21.806Z,17.80
2023-04-15T10:49:53.393Z,17.59
2023-04-15T10:52:26.124Z,18.10
2023-04-15T10:55:04.756Z,17.99
2023-04-15T10:57:38.017Z,18.12
2023-04-15T11:00:13.171Z,17.83
2023-04-15T11:02:42.617Z,17.69
2023-04-15T11:05:12.964Z,17.41
2023-04-15T11:07:47.345Z,17.36
2023-04-15T11:10:34.149Z,17.19
2023-04-15T11:13:15.054Z,16.68
2023-04-15T11:15:47.254Z,16.77
2023-04-15T11:18:22.414Z,16.70
2023-04-15T11:21:09.688Z,16.36
2023-04-15T11:23:41.452Z,15.97
2023-04-15T11:26:10.429Z,16.63
2023-04-15T11:28:39.221Z,16.92
2023-04-15T11:31:11.614Z,17.01
2023-04-15T11:33:46.104Z,16.97
2023-04-15T11:36:13.152Z,16.54
2023-04-15T11:38:43.905Z,16.73
2023-04-15T11:41:11.708Z,16.67
2023-04-15T11:43:38.637Z,16.49
2023-04-15T11:46:05.966Z,16.72
2023-04-15T11:48:35.205Z,16.68
2023-04-15T11:51:05.057Z,16.53
2023-04-15T11:53:49.732Z,16.22
2023-04-15T11:56:23.662Z,16.23
2023-04-15T11:58:57.318Z,16.04
2023-04-15T12:01:39.654Z,16.06
2023-04-15T12:04:14.375Z,15.78
2023-04-15T12:06:41.901Z,15.64
2023-04-15T12:09:17.023Z,15.74
2023-04-15T12:11:50.150Z,15.43
2023-04-15T12:14:28.670Z,15.45
2023-04-15T12:17:01.665Z,15.61
2023-04-15T12:19:37.473Z,15.54
2023-04-15T12:22:06.851Z,15.29
2023-04-15T12:24:35.091Z,15.38
2023-04-15T12:27:05.065Z,15.40
2023-04-15T12:29:33.136Z,15.21
2023-04-15T12:32:06.738Z,14.37
2023-04-15T12:34:36.150Z,14.57
2023-04-15T12:37:05.428Z,14.86
2023-04-15T12:39:36.213Z,15.30
2023-04-15T12:42:04.677Z,14.70
2023-04-15T12:44:33.510Z,15.53
2023-04-15T12:47:00.619Z,14.65
2023-04-15T12:49:28.279Z,15.32
2023-04-15T12:52:02.323Z,14.77
2023-04-15T12:54:30.569Z,15.71
2023-04-15T12:56:58.606Z,15.12
2023-04-15T12:59:26.083Z,15.19
2023-04-15T13:01:54.330Z,15.53
2023-04-15T13:04:22.406Z,15.14
2023-04-15T13:06:49.808Z,14.84
2023-04-15T13:09:17.019Z,15.15
2023-04-15T13:11:44.487Z,15.20
2023-04-15T13:14:13.368Z,15.07
2023-04-15T13:16:40.557Z,15.85
2023-04-15T13:19:07.954Z,15.60
2023-04-15T13:21:36.232Z,15.31
2023-04-15T13:24:05.110Z,15.34
2023-04-15T13:26:32.426Z,14.96
2023-04-15T13:29:00.105Z,15.10
2023-04-15T13:31:27.461Z,14.43
2023-04-15T13:33:54.618Z,14.87
2023-04-15T13:36:21.756Z,14.80
2023-04-15T13:38:51.249Z,14.11
2023-04-15T13:41:18.563Z,14.35
2023-04-15T13:43:45.986Z,14.79
2023-04-15T13:46:13.149Z,15.00
2023-04-15T13:48:40.511Z,15.60
2023-04-15T13:51:07.525Z,15.31
2023-04-15T13:53:38.556Z,15.84
2023-04-15T13:56:10.601Z,15.30
2023-04-15T13:58:38.546Z,15.42
2023-04-15T14:01:07.306Z,15.33
2023-04-15T14:03:38.324Z,14.03
2023-04-15T14:06:06.430Z,14.26
2023-04-15T14:08:34.210Z,15.08
2023-04-15T14:11:01.630Z,14.86
2023-04-15T14:13:28.668Z,15.28
2023-04-15T14:15:57.171Z,15.35
2023-04-15T14:18:24.361Z,15.80
2023-04-15T14:20:51.432Z,15.98
2023-04-15T14:23:18.372Z,15.72
2023-04-15T14:25:47.948Z,16.06
2023-04-15T14:28:16.067Z,16.37
2023-04-15T14:30:43.250Z,16.63
2023-04-15T14:33:10.306Z,16.40
2023-04-15T14:35:38.220Z,16.80
2023-04-15T14:38:06.390Z,15.95
2023-04-15T14:40:34.305Z,14.84
2023-04-15T14:43:01.242Z,15.64
2023-04-15T14:45:28.325Z,15.62
2023-04-15T14:47:55.547Z,15.78
2023-04-15T14:50:22.748Z,15.81
2023-04-15T14:52:49.752Z,15.84
2023-04-15T14:55:16.724Z,15.73
2023-04-15T14:57:43.731Z,16.19
2023-04-15T15:00:13.858Z,15.78
2023-04-15T15:02:42.635Z,16.01
2023-04-15T15:05:11.057Z,14.76
2023-04-15T15:07:39.652Z,15.02
2023-04-15T15:10:07.724Z,15.65
2023-04-15T15:12:34.889Z,14.65
2023-04-15T15:15:12.371Z,14.66
2023-04-15T15:17:46.756Z,15.12
2023-04-15T15:20:13.874Z,15.34
2023-04-15T15:22:40.930Z,15.42
2023-04-15T15:25:08.077Z,15.62
2023-04-15T15:27:37.079Z,15.65
2023-04-15T15:30:07.048Z,15.96
2023-04-15T15:32:34.162Z,15.98
2023-04-15T15:35:01.186Z,16.21
2023-04-15T15:37:28.149Z,16.19
2023-04-15T15:39:55.250Z,15.86
2023-04-15T15:42:26.019Z,16.25
2023-04-15T15:44:55.730Z,16.25
2023-04-15T15:47:22.591Z,16.12
2023-04-15T15:49:49.739Z,16.10
2023-04-15T15:52:16.772Z,15.73
2023-04-15T15:54:43.704Z,15.47
2023-04-15T15:57:11.450Z,14.93
2023-04-15T15:59:44.157Z,14.96
2023-04-15T16:02:12.460Z,15.11
2023-04-15T16:04:39.765Z,15.23
2023-04-15T16:07:07.339Z,14.60
2023-04-15T16:09:34.761Z,14.29
2023-04-15T16:12:02.431Z,14.39
2023-04-15T16:14:29.461Z,14.43
2023-04-15T16:16:56.706Z,14.45
2023-04-15T16:19:23.793Z,14.65
2023-04-15T16:21:51.373Z,14.29
2023-04-15T16:24:18.362Z,14.03
2023-04-15T16:26:45.388Z,14.36
2023-04-15T16:29:12.423Z,14.34
2023-04-15T16:31:40.375Z,14.45
2023-04-15T16:34:07.410Z,14.63
2023-04-15T16:36:36.230Z,14.88
2023-04-15T16:39:03.512Z,14.93
2023-04-15T16:41:32.608Z,14.62
2023-04-15T16:44:02.213Z,14.81
2023-04-15T16:46:30.005Z,14.22
2023-04-15T16:48:57.213Z,14.27
2023-04-15T16:51:24.384Z,13.92
2023-04-15T16:53:51.529Z,13.23
2023-04-15T16:56:19.965Z,13.90
2023-04-15T16:58:47.113Z,13.66
2023-04-15T17:01:14.252Z,12.96
2023-04-15T17:03:41.505Z,13.61
2023-04-15T17:06:08.697Z,13.09
2023-04-15T17:08:35.790Z,13.43
2023-04-15T17:11:02.845Z,13.67
2023-04-15T17:13:30.067Z,13.90
2023-04-15T17:15:57.102Z,14.10
2023-04-15T17:18:24.227Z,14.18
2023-04-15T17:20:51.410Z,13.79
2023-04-15T17:23:18.389Z,14.17
2023-04-15T17:25:45.560Z,13.21
2023-04-15T17:28:12.685Z,13.62
2023-04-15T17:30:40.070Z,13.54
2023-04-15T17:33:53.481Z,13.59
2023-04-15T17:35:54.304Z,13.83
2023-04-15T17:38:21.461Z,14.11
2023-04-15T17:40:48.497Z,14.07
2023-04-15T17:43:15.735Z,14.06
2023-04-15T17:45:43.572Z,13.51
2023-04-15T17:48:10.727Z,13.96
2023-04-15T17:50:38.848Z,14.32
2023-04-15T17:53:05.998Z,14.06
2023-04-15T17:55:33.392Z,14.12
2023-04-15T17:58:01.122Z,13.42
2023-04-15T18:00:28.162Z,13.67
2023-04-15T18:02:55.435Z,13.71
2023-04-15T18:05:22.727Z,14.01
2023-04-15T18:07:52.555Z,13.89
2023-04-15T18:10:20.831Z,13.93
2023-04-15T18:12:48.358Z,14.09
2023-04-15T18:15:15.551Z,13.83
2023-04-15T18:17:42.925Z,13.82
2023-04-15T18:20:10.318Z,13.73
2023-04-15T18:22:37.334Z,13.29
2023-04-15T18:25:04.880Z,13.59
2023-04-15T18:27:35.728Z,13.84
2023-04-15T18:30:02.776Z,13.33
2023-04-15T18:32:33.012Z,13.22
2023-04-15T18:35:00.193Z,12.99
2023-04-15T18:37:29.582Z,13.24
2023-04-15T18:39:57.020Z,13.19
2023-04-15T18:42:24.819Z,12.65
2023-04-15T18:44:53.495Z,12.87
2023-04-15T18:47:20.898Z,13.04
2023-04-15T18:49:47.961Z,12.74
2023-04-15T18:52:14.924Z,12.62
2023-04-15T18:54:41.930Z,12.59
2023-04-15T18:57:09.157Z,12.44
2023-04-15T18:59:36.540Z,12.95
2023-04-15T19:02:06.683Z,12.87
2023-04-15T19:04:34.164Z,13.05
2023-04-15T19:07:02.291Z,13.14
2023-04-15T19:09:29.571Z,13.28
2023-04-15T19:11:57.184Z,13.49
2023-04-15T19:14:24.626Z,13.56
2023-04-15T19:16:51.896Z,13.61
2023-04-15T19:19:19.450Z,13.59
2023-04-15T19:21:50.419Z,13.68
2023-04-15T19:24:18.425Z,13.76
2023-04-15T19:26:48.517Z,13.26
2023-04-15T19:29:18.067Z,13.16
2023-04-15T19:31:45.392Z,13.16
2023-04-15T19:34:12.453Z,12.84
2023-04-15T19:36:39.541Z,12.29
2023-04-15T19:39:06.883Z,11.93
2023-04-15T19:41:34.080Z,12.02
2023-04-15T19:44:01.190Z,11.90
2023-04-15T19:46:28.282Z,11.83
2023-04-15T19:48:55.859Z,11.91
2023-04-15T19:51:22.913Z,11.89
2023-04-15T19:53:51.204Z,12.17
2023-04-15T19:56:18.259Z,11.30
2023-04-15T19:58:47.131Z,11.26
2023-04-15T20:01:14.199Z,11.38
2023-04-15T20:03:41.298Z,11.41
2023-04-15T20:06:08.486Z,10.56
2023-04-15T20:08:35.573Z,10.65
2023-04-15T20:11:02.660Z,10.61
2023-04-15T20:13:29.688Z,10.86
2023-04-15T20:15:56.772Z,11.12
2023-04-15T20:18:23.802Z,11.40
2023-04-15T20:20:51.076Z,11.44
2023-04-15T20:23:18.045Z,11.88
2023-04-15T20:25:45.335Z,11.56
2023-04-15T20:28:12.568Z,11.82
2023-04-15T20:30:39.887Z,11.74
2023-04-15T20:33:08.294Z,12.29
2023-04-15T20:35:35.394Z,12.55
2023-04-15T20:38:06.013Z,12.63
2023-04-15T20:40:35.654Z,12.80
2023-04-15T20:43:02.653Z,12.91
2023-04-15T20:45:29.738Z,13.03
2023-04-15T20:47:56.830Z,12.75
2023-04-15T20:50:23.849Z,12.84
2023-04-15T20:52:50.812Z,12.31
2023-04-15T20:55:17.920Z,12.53
2023-04-15T20:57:44.902Z,12.57
2023-04-15T21:00:12.481Z,12.62
2023-04-15T21:02:39.669Z,12.81
2023-04-15T21:05:06.955Z,12.84
2023-04-15T21:07:33.977Z,12.69
2023-04-15T21:10:00.978Z,12.80
2023-04-15T21:12:27.933Z,12.81
2023-04-15T21:14:55.003Z,12.84
2023-04-15T21:17:22.081Z,12.74
2023-04-15T21:19:49.231Z,12.46
2023-04-15T21:22:16.370Z,12.52
2023-04-15T21:24:43.390Z,12.53
2023-04-15T21:27:10.427Z,12.74
2023-04-15T21:29:40.476Z,12.45
2023-04-15T21:32:07.671Z,12.62
2023-04-15T21:34:35.030Z,12.37
2023-04-15T21:37:02.326Z,12.42
2023-04-15T21:39:29.321Z,12.54
2023-04-15T21:41:58.101Z,12.61
2023-04-15T21:44:25.378Z,12.62
2023-04-15T21:46:52.431Z,12.61
2023-04-15T21:49:20.674Z,12.72
2023-04-15T21:51:48.274Z,12.77
2023-04-15T21:54:15.381Z,12.78
2023-04-15T21:56:43.414Z,12.67
2023-04-15T21:59:10.647Z,12.50
2023-04-15T22:01:37.765Z,12.58
2023-04-15T22:04:06.221Z,12.68
2023-04-15T22:06:33.350Z,12.46
2023-04-15T22:09:00.436Z,12.53
2023-04-15T22:11:28.517Z,12.60
2023-04-15T22:13:57.566Z,12.32
2023-04-15T22:16:28.896Z,12.45
2023-04-15T22:18:56.224Z,12.50
2023-04-15T22:21:23.818Z,12.53
2023-04-15T22:23:51.644Z,12.49
2023-04-15T22:26:18.642Z,12.52
2023-04-15T22:28:45.952Z,12.49
2023-04-15T22:31:13.898Z,12.41
2023-04-15T22:33:40.947Z,12.45
2023-04-15T22:36:08.058Z,12.32
2023-04-15T22:38:35.116Z,12.41
2023-04-15T22:41:02.151Z,12.49
2023-04-15T22:43:29.122Z,12.47
2023-04-15T22:45:56.950Z,12.33
2023-04-15T22:48:24.130Z,12.16
2023-04-15T22:50:51.257Z,12.15
2023-04-15T22:53:18.657Z,11.93
2023-04-15T22:55:47.305Z,11.96
2023-04-15T22:58:15.217Z,12.00
2023-04-15T23:00:42.387Z,11.95
2023-04-15T23:03:09.612Z,12.05
2023-04-15T23:05:37.198Z,12.03
2023-04-15T23:08:04.221Z,11.97
2023-04-15T23:10:31.261Z,11.95
2023-04-15T23:12:58.305Z,11.68
2023-04-15T23:15:37.366Z,11.75
2023-04-15T23:18:04.467Z,11.72
2023-04-15T23:20:31.967Z,11.70
2023-04-15T23:22:59.005Z,11.80
2023-04-15T23:25:26.370Z,11.92
2023-04-15T23:27:53.451Z,11.89
2023-04-15T23:30:20.677Z,11.60
2023-04-15T23:32:47.732Z,11.65
2023-04-15T23:35:15.016Z,11.71
2023-04-15T23:37:42.042Z,11.73
2023-04-15T23:40:09.543Z,11.66
2023-04-15T23:42:36.565Z,11.56
2023-04-15T23:45:03.631Z,11.18
2023-04-15T23:47:30.696Z,11.30
2023-04-15T23:49:57.813Z,11.39
2023-04-15T23:52:24.977Z,11.41
2023-04-15T23:54:52.065Z,11.48
2023-04-15T23:57:19.187Z,11.31
2023-04-15T23:59:46.479Z,11.26
